createdAt,value
2023-01-28T00:00:49.306Z,-66
2023-01-28T00:03:16.036Z,-65
2023-01-28T00:05:43.160Z,-65
2023-01-28T00:08:10.330Z,-66
2023-01-28T00:10:39.715Z,-65
2023-01-28T00:13:14.680Z,-65
2023-01-28T00:15:41.735Z,-64
2023-01-28T00:18:08.259Z,-64
2023-01-28T00:20:35.601Z,-65
2023-01-28T00:23:02.154Z,-65
2023-01-28T00:25:28.626Z,-65
2023-01-28T00:27:55.685Z,-65
2023-01-28T00:30:22.138Z,-65
2023-01-28T00:32:48.599Z,-65
2023-01-28T00:35:16.041Z,-64
2023-01-28T00:37:46.019Z,-65
2023-01-28T00:40:12.954Z,-67
2023-01-28T00:42:39.417Z,-66
2023-01-28T00:45:06.324Z,-67
2023-01-28T00:47:32.782Z,-66
2023-01-28T00:49:59.248Z,-67
2023-01-28T00:52:26.077Z,-67
2023-01-28T00:54:52.644Z,-67
2023-01-28T00:57:21.589Z,-67
2023-01-28T00:59:48.034Z,-66
2023-01-28T01:02:14.586Z,-67
2023-01-28T01:04:41.327Z,-67
2023-01-28T01:07:07.996Z,-67
2023-01-28T01:09:34.504Z,-67
2023-01-28T01:12:01.349Z,-67
2023-01-28T01:14:27.867Z,-67
2023-01-28T01:16:54.424Z,-67
2023-01-28T01:19:21.491Z,-68
2023-01-28T01:21:50.796Z,-68
2023-01-28T01:24:17.657Z,-68
2023-01-28T01:26:44.307Z,-68
2023-01-28T01:29:10.874Z,-68
2023-01-28T01:31:37.859Z,-67
2023-01-28T01:34:04.749Z,-69
2023-01-28T01:36:31.914Z,-69
2023-01-28T01:38:58.479Z,-69
2023-01-28T01:41:26.969Z,-69
2023-01-28T01:43:59.948Z,-68
2023-01-28T01:46:43.894Z,-68
2023-01-28T01:49:19.433Z,-66
2023-01-28T01:51:51.311Z,-66
2023-01-28T01:54:19.680Z,-65
2023-01-28T01:56:49.544Z,-66
2023-01-28T01:59:22.395Z,-66
2023-01-28T02:01:49.172Z,-65
2023-01-28T02:04:18.396Z,-66
2023-01-28T02:06:45.806Z,-66
2023-01-28T02:09:42.156Z,-65
2023-01-28T02:12:16.185Z,-66
2023-01-28T02:14:48.492Z,-65
2023-01-28T02:17:16.012Z,-65
2023-01-28T02:19:58.098Z,-65
2023-01-28T02:22:56.722Z,-65
2023-01-28T02:25:29.374Z,-65
2023-01-28T02:28:01.813Z,-65
2023-01-28T02:30:35.249Z,-65
2023-01-28T02:33:08.692Z,-65
2023-01-28T02:35:46.054Z,-66
2023-01-28T02:38:19.571Z,-65
2023-01-28T02:41:05.804Z,-64
2023-01-28T02:43:37.393Z,-65
2023-01-28T02:46:37.978Z,-65
2023-01-28T02:49:09.913Z,-67
2023-01-28T02:52:52.545Z,-65
2023-01-28T02:55:40.604Z,-65
2023-01-28T02:58:32.749Z,-67
2023-01-28T03:01:11.493Z,-66
2023-01-28T03:03:40.874Z,-66
2023-01-28T03:06:11.777Z,-66
2023-01-28T03:09:11.946Z,-67
2023-01-28T03:12:03.482Z,-67
2023-01-28T03:14:50.903Z,-67
2023-01-28T03:17:43.652Z,-64
2023-01-28T03:20:29.563Z,-67
2023-01-28T03:23:18.615Z,-65
2023-01-28T03:26:10.171Z,-66
2023-01-28T03:28:58.472Z,-67
2023-01-28T03:31:44.920Z,-67
2023-01-28T03:34:31.094Z,-65
2023-01-28T03:36:58.175Z,-66
2023-01-28T03:39:30.146Z,-67
2023-01-28T03:42:12.632Z,-64
2023-01-28T03:44:55.140Z,-65
2023-01-28T03:47:27.677Z,-65
2023-01-28T03:49:59.728Z,-66
2023-01-28T03:52:30.232Z,-67
2023-01-28T03:54:56.968Z,-67
2023-01-28T03:57:26.450Z,-66
2023-01-28T03:59:54.015Z,-68
2023-01-28T04:02:22.129Z,-68
2023-01-28T04:04:50.265Z,-68
2023-01-28T04:07:17.343Z,-67
2023-01-28T04:09:44.484Z,-68
2023-01-28T04:12:11.460Z,-68
2023-01-28T04:14:40.159Z,-67
2023-01-28T04:17:09.677Z,-67
2023-01-28T04:19:38.006Z,-66
2023-01-28T04:22:10.460Z,-67
2023-01-28T04:24:37.030Z,-65
2023-01-28T04:27:03.675Z,-67
2023-01-28T04:29:30.154Z,-66
2023-01-28T04:31:57.033Z,-65
2023-01-28T04:34:23.515Z,-66
2023-01-28T04:36:50.121Z,-66
2023-01-28T04:39:16.645Z,-68
2023-01-28T04:41:43.111Z,-65
2023-01-28T04:44:09.736Z,-67
2023-01-28T04:46:39.157Z,-65
2023-01-28T04:49:06.022Z,-66
2023-01-28T04:51:32.560Z,-66
2023-01-28T04:53:59.095Z,-67
2023-01-28T04:56:25.645Z,-66
2023-01-28T04:58:52.275Z,-64
2023-01-28T05:01:18.870Z,-65
2023-01-28T05:03:45.377Z,-64
2023-01-28T05:06:11.843Z,-64
2023-01-28T05:08:38.531Z,-66
2023-01-28T05:11:05.237Z,-64
2023-01-28T05:13:31.760Z,-64
2023-01-28T05:15:58.685Z,-64
2023-01-28T05:18:25.208Z,-64
2023-01-28T05:20:51.688Z,-64
2023-01-28T05:23:18.175Z,-64
2023-01-28T05:25:45.391Z,-63
2023-01-28T05:28:11.911Z,-63
2023-01-28T05:30:40.333Z,-63
2023-01-28T05:33:06.866Z,-62
2023-01-28T05:35:34.102Z,-63
2023-01-28T05:38:00.632Z,-62
2023-01-28T05:40:27.083Z,-63
2023-01-28T05:42:53.603Z,-65
2023-01-28T05:45:20.341Z,-64
2023-01-28T05:47:46.917Z,-63
2023-01-28T05:50:15.012Z,-63
2023-01-28T05:52:41.780Z,-63
2023-01-28T05:55:09.128Z,-63
2023-01-28T05:57:35.660Z,-63
2023-01-28T06:00:02.421Z,-62
2023-01-28T06:02:28.958Z,-63
2023-01-28T06:04:55.460Z,-63
2023-01-28T06:07:22.031Z,-63
2023-01-28T06:09:48.628Z,-62
2023-01-28T06:12:15.203Z,-63
2023-01-28T06:14:42.472Z,-63
2023-01-28T06:17:09.040Z,-64
2023-01-28T06:19:35.986Z,-64
2023-01-28T06:22:02.571Z,-62
2023-01-28T06:24:29.123Z,-64
2023-01-28T06:26:56.160Z,-63
2023-01-28T06:29:23.530Z,-61
2023-01-28T06:31:51.246Z,-63
2023-01-28T06:34:18.047Z,-62
2023-01-28T06:36:45.062Z,-61
2023-01-28T06:39:11.930Z,-63
2023-01-28T06:41:38.407Z,-63
2023-01-28T06:44:05.150Z,-64
2023-01-28T06:46:31.736Z,-66
2023-01-28T06:48:58.272Z,-65
2023-01-28T06:51:24.815Z,-65
2023-01-28T06:53:51.349Z,-65
2023-01-28T06:56:18.122Z,-62
2023-01-28T06:58:44.652Z,-64
2023-01-28T07:01:11.114Z,-63
2023-01-28T07:03:37.604Z,-63
2023-01-28T07:06:04.737Z,-63
2023-01-28T07:08:31.432Z,-63
2023-01-28T07:10:58.233Z,-63
2023-01-28T07:13:24.963Z,-63
2023-01-28T07:15:51.730Z,-64
2023-01-28T07:18:18.917Z,-65
2023-01-28T07:20:45.903Z,-62
2023-01-28T07:23:12.857Z,-63
2023-01-28T07:25:39.386Z,-62
2023-01-28T07:28:05.876Z,-65
2023-01-28T07:30:32.617Z,-63
2023-01-28T07:33:00.779Z,-62
2023-01-28T07:35:27.439Z,-62
2023-01-28T07:37:55.368Z,-63
2023-01-28T07:40:22.428Z,-64
2023-01-28T07:42:49.074Z,-63
2023-01-28T07:45:16.472Z,-62
2023-01-28T07:47:42.998Z,-64
2023-01-28T07:50:11.209Z,-62
2023-01-28T07:52:44.337Z,-65
2023-01-28T07:55:15.571Z,-65
2023-01-28T07:58:11.963Z,-63
2023-01-28T08:00:39.202Z,-63
2023-01-28T08:03:08.373Z,-63
2023-01-28T08:05:41.551Z,-63
2023-01-28T08:08:09.921Z,-63
2023-01-28T08:10:37.145Z,-64
2023-01-28T08:13:04.457Z,-65
2023-01-28T08:15:34.081Z,-63
2023-01-28T08:18:01.633Z,-63
2023-01-28T08:20:29.493Z,-62
2023-01-28T08:23:08.831Z,-61
2023-01-28T08:25:36.111Z,-60
2023-01-28T08:28:03.575Z,-61
2023-01-28T08:30:30.208Z,-59
2023-01-28T08:33:00.537Z,-61
2023-01-28T08:35:28.787Z,-60
2023-01-28T08:37:55.285Z,-60
2023-01-28T08:40:22.530Z,-60
2023-01-28T08:42:53.479Z,-61
2023-01-28T08:45:27.637Z,-59
2023-01-28T08:47:56.111Z,-59
2023-01-28T08:50:24.794Z,-60
2023-01-28T08:52:59.481Z,-60
2023-01-28T08:55:27.432Z,-59
2023-01-28T08:57:54.161Z,-59
2023-01-28T09:00:21.932Z,-60
2023-01-28T09:02:52.462Z,-63
2023-01-28T09:05:20.129Z,-61
2023-01-28T09:07:46.909Z,-61
2023-01-28T09:10:14.223Z,-58
2023-01-28T09:12:40.862Z,-62
2023-01-28T09:15:08.431Z,-61
2023-01-28T09:17:34.994Z,-61
2023-01-28T09:20:01.631Z,-62
2023-01-28T09:22:28.136Z,-61
2023-01-28T09:24:54.628Z,-61
2023-01-28T09:27:21.268Z,-60
2023-01-28T09:29:47.825Z,-60
2023-01-28T09:32:14.270Z,-60
2023-01-28T09:34:40.972Z,-61
2023-01-28T09:37:07.543Z,-60
2023-01-28T09:39:34.461Z,-60
2023-01-28T09:42:13.180Z,-60
2023-01-28T09:45:06.085Z,-61
2023-01-28T09:47:37.853Z,-61
2023-01-28T09:50:27.429Z,-61
2023-01-28T09:52:57.511Z,-60
2023-01-28T09:55:46.242Z,-61
2023-01-28T09:58:16.079Z,-61
2023-01-28T10:01:05.237Z,-61
2023-01-28T10:03:38.194Z,-62
2023-01-28T10:06:26.765Z,-62
2023-01-28T10:09:19.511Z,-61
2023-01-28T10:12:19.548Z,-61
2023-01-28T10:14:52.205Z,-60
2023-01-28T10:17:42.680Z,-63
2023-01-28T10:20:12.313Z,-60
2023-01-28T10:22:45.535Z,-63
2023-01-28T10:25:20.662Z,-60
2023-01-28T10:27:49.275Z,-63
2023-01-28T10:30:22.481Z,-60
2023-01-28T10:33:05.815Z,-59
2023-01-28T10:35:41.817Z,-59
2023-01-28T10:38:13.492Z,-60
2023-01-28T10:40:42.657Z,-66
2023-01-28T10:43:09.703Z,-63
2023-01-28T10:45:45.713Z,-65
2023-01-28T10:48:21.317Z,-64
2023-01-28T10:51:05.340Z,-63
2023-01-28T10:53:43.677Z,-63
2023-01-28T10:56:18.001Z,-69
2023-01-28T10:59:04.429Z,-64
2023-01-28T11:01:47.882Z,-65
2023-01-28T11:04:30.270Z,-64
2023-01-28T11:07:04.016Z,-66
2023-01-28T11:09:35.952Z,-62
2023-01-28T11:12:21.889Z,-59
2023-01-28T11:14:52.380Z,-58
2023-01-28T11:17:21.631Z,-59
2023-01-28T11:19:48.718Z,-59
2023-01-28T11:22:24.711Z,-58
2023-01-28T11:24:51.393Z,-58
2023-01-28T11:27:23.876Z,-58
2023-01-28T11:29:57.263Z,-58
2023-01-28T11:32:26.672Z,-58
2023-01-28T11:34:57.365Z,-58
2023-01-28T11:37:26.262Z,-58
2023-01-28T11:40:21.567Z,-59
2023-01-28T11:42:50.759Z,-57
2023-01-28T11:45:22.694Z,-58
2023-01-28T11:48:07.063Z,-57
2023-01-28T11:50:59.993Z,-59
2023-01-28T11:53:50.166Z,-57
2023-01-28T11:56:33.756Z,-58
2023-01-28T11:59:19.974Z,-58
2023-01-28T12:02:01.655Z,-59
2023-01-28T12:05:05.454Z,-59
2023-01-28T12:07:34.670Z,-59
2023-01-28T12:10:09.832Z,-59
2023-01-28T12:12:51.672Z,-61
2023-01-28T12:15:40.314Z,-59
2023-01-28T12:18:31.968Z,-58
2023-01-28T12:21:01.539Z,-59
2023-01-28T12:23:51.022Z,-58
2023-01-28T12:26:46.802Z,-58
2023-01-28T12:29:41.444Z,-59
2023-01-28T12:32:39.575Z,-59
2023-01-28T12:35:07.875Z,-59
2023-01-28T12:37:42.625Z,-58
2023-01-28T12:40:33.699Z,-59
2023-01-28T12:43:43.346Z,-59
2023-01-28T12:46:17.893Z,-58
2023-01-28T12:48:53.061Z,-57
2023-01-28T12:51:38.456Z,-59
2023-01-28T12:54:38.610Z,-59
2023-01-28T12:57:05.251Z,-58
2023-01-28T12:59:39.857Z,-58
2023-01-28T13:02:22.005Z,-58
2023-01-28T13:05:02.428Z,-58
2023-01-28T13:07:38.013Z,-57
2023-01-28T13:10:12.806Z,-58
2023-01-28T13:12:41.502Z,-58
2023-01-28T13:15:17.187Z,-58
2023-01-28T13:18:00.318Z,-58
2023-01-28T13:20:39.399Z,-57
2023-01-28T13:23:26.041Z,-56
2023-01-28T13:25:55.833Z,-59
2023-01-28T13:28:31.580Z,-58
2023-01-28T13:31:02.459Z,-57
2023-01-28T13:33:33.056Z,-58
2023-01-28T13:36:06.626Z,-58
2023-01-28T13:38:34.137Z,-57
2023-01-28T13:41:01.458Z,-57
2023-01-28T13:43:34.119Z,-58
2023-01-28T13:46:04.656Z,-58
2023-01-28T13:48:38.741Z,-59
2023-01-28T13:51:12.883Z,-61
2023-01-28T13:53:49.296Z,-59
2023-01-28T13:56:25.718Z,-63
2023-01-28T13:59:23.916Z,-57
2023-01-28T14:02:12.018Z,-58
2023-01-28T14:04:45.293Z,-59
2023-01-28T14:07:40.880Z,-60
2023-01-28T14:10:38.701Z,-60
2023-01-28T14:13:20.373Z,-60
2023-01-28T14:15:50.726Z,-58
2023-01-28T14:18:36.795Z,-57
2023-01-28T14:21:11.213Z,-58
2023-01-28T14:23:47.154Z,-60
2023-01-28T14:26:44.580Z,-58
2023-01-28T14:30:05.233Z,-59
2023-01-28T14:32:33.446Z,-59
2023-01-28T14:35:07.343Z,-58
2023-01-28T14:37:34.017Z,-59
2023-01-28T14:40:04.336Z,-59
2023-01-28T14:42:35.932Z,-60
2023-01-28T14:45:11.563Z,-59
2023-01-28T14:47:56.258Z,-60
2023-01-28T14:51:03.076Z,-59
2023-01-28T14:53:29.557Z,-59
2023-01-28T14:55:59.148Z,-59
2023-01-28T14:58:37.382Z,-59
2023-01-28T15:01:03.999Z,-59
2023-01-28T15:03:32.086Z,-59
2023-01-28T15:06:05.868Z,-59
2023-01-28T15:08:32.542Z,-58
2023-01-28T15:11:01.777Z,-59
2023-01-28T15:13:30.839Z,-58
2023-01-28T15:16:00.925Z,-58
2023-01-28T15:18:34.301Z,-58
2023-01-28T15:21:02.098Z,-58
2023-01-28T15:23:34.545Z,-58
2023-01-28T15:26:06.534Z,-58
2023-01-28T15:28:37.064Z,-59
2023-01-28T15:31:04.203Z,-60
2023-01-28T15:33:30.900Z,-59
2023-01-28T15:35:58.929Z,-58
2023-01-28T15:38:28.516Z,-58
2023-01-28T15:40:59.487Z,-59
2023-01-28T15:43:31.983Z,-59
2023-01-28T15:46:00.147Z,-60
2023-01-28T15:48:29.375Z,-59
2023-01-28T15:51:04.942Z,-57
2023-01-28T15:53:41.984Z,-59
2023-01-28T15:56:13.505Z,-59
2023-01-28T15:58:41.812Z,-59
2023-01-28T16:01:08.496Z,-58
2023-01-28T16:03:37.175Z,-58
2023-01-28T16:06:09.736Z,-59
2023-01-28T16:08:54.333Z,-59
2023-01-28T16:11:28.663Z,-56
2023-01-28T16:13:56.146Z,-58
2023-01-28T16:16:32.240Z,-58
2023-01-28T16:18:59.513Z,-58
2023-01-28T16:21:33.801Z,-58
2023-01-28T16:24:07.693Z,-58
2023-01-28T16:26:36.107Z,-58
2023-01-28T16:29:17.156Z,-59
2023-01-28T16:31:43.914Z,-58
2023-01-28T16:34:10.841Z,-58
2023-01-28T16:36:37.608Z,-57
2023-01-28T16:39:04.407Z,-58
2023-01-28T16:41:35.212Z,-58
2023-01-28T16:44:05.775Z,-59
2023-01-28T16:46:36.056Z,-58
2023-01-28T16:49:02.739Z,-58
2023-01-28T16:51:29.653Z,-58
2023-01-28T16:53:57.326Z,-59
2023-01-28T16:59:16.328Z,-59
2023-01-28T17:01:44.431Z,-57
2023-01-28T17:04:12.796Z,-59
2023-01-28T17:06:43.001Z,-59
2023-01-28T17:09:11.842Z,-59
2023-01-28T17:11:40.730Z,-58
2023-01-28T17:14:07.976Z,-83
2023-01-28T17:16:34.894Z,-83
2023-01-28T17:19:01.797Z,-83
2023-01-28T17:21:28.726Z,-83
2023-01-28T17:23:56.535Z,-83
2023-01-28T17:26:24.168Z,-83
2023-01-28T17:28:54.201Z,-83
2023-01-28T17:31:21.833Z,-83
2023-01-28T17:33:54.337Z,-83
2023-01-28T17:36:21.308Z,-83
2023-01-28T17:38:48.682Z,-83
2023-01-28T17:41:17.495Z,-83
2023-01-28T17:43:49.729Z,-83
2023-01-28T17:46:17.350Z,-83
2023-01-28T17:48:45.859Z,-83
2023-01-28T17:51:13.911Z,-83
2023-01-28T17:53:45.919Z,-83
2023-01-28T17:56:29.127Z,-83
2023-01-28T17:59:02.793Z,-83
2023-01-28T18:01:30.259Z,-83
2023-01-28T18:03:58.824Z,-83
2023-01-28T18:06:25.799Z,-83
2023-01-28T18:08:52.406Z,-82
2023-01-28T18:11:19.964Z,-82
2023-01-28T18:13:47.139Z,-82
2023-01-28T18:16:17.326Z,-83
2023-01-28T18:18:45.188Z,-83
2023-01-28T18:21:51.803Z,-83
2023-01-28T18:24:19.828Z,-83
2023-01-28T18:26:46.577Z,-83
2023-01-28T18:29:17.059Z,-81
2023-01-28T18:31:44.854Z,-83
2023-01-28T18:34:11.721Z,-83
2023-01-28T18:36:38.615Z,-83
2023-01-28T18:39:12.644Z,-83
2023-01-28T18:41:39.649Z,-83
2023-01-28T18:44:08.217Z,-83
2023-01-28T18:46:35.304Z,-84
2023-01-28T18:49:04.185Z,-83
2023-01-28T18:51:31.145Z,-83
2023-01-28T18:54:04.006Z,-84
2023-01-28T18:56:31.972Z,-83
2023-01-28T18:59:00.930Z,-82
2023-01-28T19:01:28.449Z,-82
2023-01-28T19:03:57.117Z,-82
2023-01-28T19:06:24.831Z,-81
2023-01-28T19:08:57.964Z,-82
2023-01-28T19:11:26.644Z,-83
2023-01-28T19:13:53.883Z,-83
2023-01-28T19:16:21.870Z,-83
2023-01-28T19:18:57.519Z,-83
2023-01-28T19:21:25.658Z,-83
2023-01-28T19:24:01.823Z,-83
2023-01-28T19:26:30.784Z,-83
2023-01-28T19:28:58.064Z,-82
2023-01-28T19:31:26.360Z,-82
2023-01-28T19:33:56.826Z,-82
2023-01-28T19:36:26.192Z,-82
2023-01-28T19:38:56.584Z,-82
2023-01-28T19:41:23.399Z,-82
2023-01-28T19:43:50.190Z,-83
2023-01-28T19:46:18.167Z,-82
2023-01-28T19:48:45.554Z,-83
2023-01-28T19:51:13.595Z,-84
2023-01-28T19:53:41.892Z,-84
2023-01-28T19:56:14.632Z,-83
2023-01-28T19:58:43.668Z,-83
2023-01-28T20:01:20.113Z,-84
2023-01-28T20:03:51.282Z,-83
2023-01-28T20:06:18.026Z,-84
2023-01-28T20:08:45.747Z,-83
2023-01-28T20:11:15.011Z,-83
2023-01-28T20:13:44.267Z,-83
2023-01-28T20:16:25.642Z,-83
2023-01-28T20:18:58.209Z,-84
2023-01-28T20:21:25.974Z,-82
2023-01-28T20:23:54.854Z,-83
2023-01-28T20:26:25.130Z,-83
2023-01-28T20:28:52.135Z,-84
2023-01-28T20:31:20.256Z,-83
2023-01-28T20:33:47.326Z,-83
2023-01-28T20:36:14.823Z,-83
2023-01-28T20:38:44.080Z,-83
2023-01-28T20:41:13.146Z,-83
2023-01-28T20:43:41.597Z,-83
2023-01-28T20:46:12.101Z,-85
2023-01-28T20:48:38.850Z,-84
2023-01-28T20:51:14.124Z,-83
2023-01-28T20:53:41.844Z,-82
2023-01-28T20:56:10.326Z,-82
2023-01-28T20:58:37.117Z,-82
2023-01-28T21:01:04.581Z,-82
2023-01-28T21:03:31.589Z,-83
2023-01-28T21:05:58.323Z,-83
2023-01-28T21:08:24.939Z,-83
2023-01-28T21:10:51.466Z,-83
2023-01-28T21:13:18.294Z,-82
2023-01-28T21:15:55.956Z,-82
2023-01-28T21:18:23.118Z,-82
2023-01-28T21:20:50.334Z,-82
2023-01-28T21:23:17.121Z,-83
2023-01-28T21:25:47.063Z,-82
2023-01-28T21:28:14.254Z,-82
2023-01-28T21:30:40.916Z,-82
2023-01-28T21:33:08.074Z,-82
2023-01-28T21:35:39.669Z,-82
2023-01-28T21:38:06.641Z,-82
2023-01-28T21:40:34.645Z,-82
2023-01-28T21:43:01.802Z,-82
2023-01-28T21:45:28.877Z,-83
2023-01-28T21:47:55.780Z,-83
2023-01-28T21:50:23.077Z,-81
2023-01-28T21:52:50.570Z,-82
2023-01-28T21:55:17.961Z,-82
2023-01-28T21:57:46.428Z,-83
2023-01-28T22:00:13.387Z,-82
2023-01-28T22:02:40.766Z,-82
2023-01-28T22:05:07.753Z,-82
2023-01-28T22:07:36.704Z,-83
2023-01-28T22:10:03.487Z,-83
2023-01-28T22:12:30.359Z,-83
2023-01-28T22:14:57.005Z,-82
2023-01-28T22:17:25.930Z,-83
2023-01-28T22:19:57.044Z,-82
2023-01-28T22:22:24.388Z,-82
2023-01-28T22:24:51.601Z,-82
2023-01-28T22:27:18.261Z,-82
2023-01-28T22:29:44.867Z,-82
2023-01-28T22:32:11.441Z,-81
2023-01-28T22:34:38.074Z,-81
2023-01-28T22:37:07.451Z,-81
2023-01-28T22:40:34.137Z,-81
2023-01-28T22:43:00.973Z,-81
2023-01-28T22:45:27.709Z,-80
2023-01-28T22:47:54.421Z,-81
2023-01-28T22:50:21.818Z,-81
2023-01-28T22:52:48.873Z,-81
2023-01-28T22:55:15.808Z,-81
2023-01-28T22:57:42.394Z,-81
2023-01-28T23:00:12.412Z,-83
2023-01-28T23:02:39.132Z,-82
2023-01-28T23:05:06.693Z,-82
2023-01-28T23:07:33.313Z,-66
2023-01-28T23:09:59.827Z,-66
2023-01-28T23:12:26.423Z,-65
2023-01-28T23:15:11.359Z,-65
2023-01-28T23:17:56.620Z,-65
2023-01-28T23:20:41.584Z,-65
2023-01-28T23:23:34.687Z,-66
2023-01-28T23:26:01.254Z,-64
2023-01-28T23:28:28.041Z,-64
2023-01-28T23:30:54.850Z,-63
2023-01-28T23:33:21.493Z,-63
2023-01-28T23:35:48.017Z,-63
2023-01-28T23:38:15.153Z,-63
2023-01-28T23:40:41.797Z,-65
2023-01-28T23:43:08.318Z,-65
2023-01-28T23:45:34.820Z,-64
2023-01-28T23:48:01.540Z,-65
2023-01-28T23:50:28.066Z,-65
2023-01-28T23:52:54.527Z,-66
2023-01-28T23:55:21.063Z,-66
2023-01-28T23:57:48.058Z,-67
